createdAt,value
2019-04-19T00:00:38.401Z,48.05
2019-04-19T00:01:45.052Z,48.20
2019-04-19T00:02:43.693Z,48.31
2019-04-19T00:03:40.753Z,48.32
2019-04-19T00:04:48.486Z,48.35
2019-04-19T00:05:42.961Z,48.45
2019-04-19T00:06:42.449Z,48.51
2019-04-19T00:07:46.863Z,48.50
2019-04-19T00:09:01.511Z,48.54
2019-04-19T00:09:50.054Z,48.58
2019-04-19T00:10:49.519Z,48.67
2019-04-19T00:11:47.746Z,48.69
2019-04-19T00:12:48.661Z,48.84
2019-04-19T00:13:43.035Z,48.85
2019-04-19T00:14:42.356Z,49.11
2019-04-19T00:15:43.470Z,49.00
2019-04-19T00:16:42.827Z,48.95
2019-04-19T00:17:43.941Z,49.06
2019-04-19T00:19:02.385Z,49.16
2019-04-19T00:20:05.073Z,49.17
2019-04-19T00:21:03.025Z,49.18
2019-04-19T00:22:10.604Z,49.15
2019-04-19T00:22:59.379Z,49.21
2019-04-19T00:23:48.349Z,49.34
2019-04-19T00:24:45.841Z,49.36
2019-04-19T00:25:45.428Z,49.38
2019-04-19T00:26:46.722Z,49.22
2019-04-19T00:27:52.484Z,49.24
2019-04-19T00:28:53.709Z,49.25
2019-04-19T00:29:54.644Z,49.33
2019-04-19T00:30:58.062Z,49.30
2019-04-19T00:32:04.705Z,49.45
2019-04-19T00:33:02.629Z,49.40
2019-04-19T00:33:51.465Z,49.51
2019-04-19T00:34:48.448Z,49.62
2019-04-19T00:35:49.521Z,49.75
2019-04-19T00:36:48.896Z,49.79
2019-04-19T00:37:53.200Z,49.81
2019-04-19T00:39:06.227Z,49.89
2019-04-19T00:40:07.861Z,49.94
2019-04-19T00:41:09.295Z,50.00
2019-04-19T00:42:10.382Z,50.09
2019-04-19T00:43:06.489Z,50.16
2019-04-19T00:44:04.163Z,50.17
2019-04-19T00:45:08.002Z,50.35
2019-04-19T00:46:14.675Z,50.50
2019-04-19T00:47:10.820Z,50.48
2019-04-19T00:48:02.962Z,50.60
2019-04-19T00:49:05.544Z,50.55
2019-04-19T00:50:07.704Z,50.59
2019-04-19T00:51:04.987Z,50.76
2019-04-19T00:52:05.465Z,50.91
2019-04-19T00:53:09.240Z,50.99
2019-04-19T00:54:06.309Z,51.21
2019-04-19T00:55:04.302Z,51.10
2019-04-19T00:56:04.492Z,51.17
2019-04-19T00:57:01.553Z,51.19
2019-04-19T00:58:04.020Z,51.23
2019-04-19T00:59:01.935Z,51.34
2019-04-19T00:59:56.888Z,51.50
2019-04-19T01:00:59.435Z,51.39
2019-04-19T01:02:04.732Z,51.47
2019-04-19T01:02:59.455Z,51.51
2019-04-19T01:03:57.466Z,51.66
2019-04-19T01:05:03.679Z,51.74
2019-04-19T01:06:04.560Z,51.93
2019-04-19T01:07:00.957Z,52.11
2019-04-19T01:08:01.843Z,52.19
2019-04-19T01:09:15.416Z,52.43
2019-04-19T01:10:15.408Z,52.60
2019-04-19T01:11:12.874Z,52.96
2019-04-19T01:12:10.725Z,53.41
2019-04-19T01:13:11.109Z,53.79
2019-04-19T01:14:14.021Z,54.13
2019-04-19T01:15:10.653Z,54.78
2019-04-19T01:16:08.804Z,55.57
2019-04-19T01:17:17.464Z,56.36
2019-04-19T01:18:15.370Z,57.17
2019-04-19T01:19:07.435Z,58.07
2019-04-19T01:20:06.339Z,58.49
2019-04-19T01:21:02.969Z,59.00
2019-04-19T01:22:08.166Z,59.53
2019-04-19T01:23:07.127Z,60.05
2019-04-19T01:24:04.929Z,60.35
2019-04-19T01:25:10.476Z,60.77
2019-04-19T01:26:05.883Z,61.28
2019-04-19T01:27:02.654Z,61.82
2019-04-19T01:28:08.814Z,62.07
2019-04-19T01:29:08.460Z,62.99
2019-04-19T01:30:03.412Z,63.04
2019-04-19T01:31:10.123Z,63.02
2019-04-19T01:32:08.715Z,63.25
2019-04-19T01:33:05.426Z,63.87
2019-04-19T01:34:10.996Z,64.31
2019-04-19T01:35:09.227Z,64.42
2019-04-19T01:36:04.250Z,64.65
2019-04-19T01:37:11.305Z,64.84
2019-04-19T01:38:06.661Z,64.68
2019-04-19T01:39:17.920Z,64.63
2019-04-19T01:40:16.769Z,64.58
2019-04-19T01:41:20.774Z,64.90
2019-04-19T01:42:24.757Z,65.34
2019-04-19T01:43:23.884Z,65.80
2019-04-19T01:44:24.040Z,65.79
2019-04-19T01:45:20.090Z,65.76
2019-04-19T01:46:19.053Z,65.73
2019-04-19T01:47:29.377Z,65.81
2019-04-19T01:48:24.693Z,65.89
2019-04-19T01:49:12.862Z,66.10
2019-04-19T01:50:17.351Z,66.28
2019-04-19T01:51:21.293Z,66.62
2019-04-19T01:52:18.236Z,67.05
2019-04-19T01:53:25.347Z,67.51
2019-04-19T01:54:26.734Z,67.80
2019-04-19T01:55:18.013Z,68.07
2019-04-19T01:56:13.186Z,68.33
2019-04-19T01:57:11.498Z,68.71
2019-04-19T01:58:13.983Z,68.79
2019-04-19T01:59:09.334Z,69.08
2019-04-19T02:00:11.871Z,69.55
2019-04-19T02:01:16.544Z,70.02
2019-04-19T02:02:15.557Z,70.16
2019-04-19T02:03:11.072Z,70.96
2019-04-19T02:04:16.768Z,71.49
2019-04-19T02:05:15.975Z,71.71
2019-04-19T02:06:14.693Z,71.87
2019-04-19T02:07:18.087Z,72.12
2019-04-19T02:08:14.386Z,72.55
2019-04-19T02:09:24.582Z,72.95
2019-04-19T02:10:22.351Z,73.75
2019-04-19T02:11:26.851Z,74.06
2019-04-19T02:12:26.091Z,74.01
2019-04-19T02:13:23.185Z,74.09
2019-04-19T02:14:19.196Z,73.95
2019-04-19T02:15:19.458Z,74.08
2019-04-19T02:16:18.462Z,74.25
2019-04-19T02:17:16.507Z,74.69
2019-04-19T02:18:21.885Z,74.61
2019-04-19T02:20:15.819Z,74.34
2019-04-19T02:21:21.324Z,74.08
2019-04-19T02:22:21.130Z,74.43
2019-04-19T02:23:17.235Z,74.72
2019-04-19T02:24:14.735Z,74.81
2019-04-19T02:25:21.429Z,75.26
2019-04-19T02:26:19.618Z,75.70
2019-04-19T02:28:23.078Z,76.12
2019-04-19T02:29:20.295Z,76.59
2019-04-19T02:30:29.234Z,78.21
2019-04-19T02:31:37.425Z,78.34
2019-04-19T02:32:34.016Z,78.84
2019-04-19T02:33:47.676Z,79.91
2019-04-19T02:34:41.576Z,80.21
2019-04-19T02:35:46.361Z,80.48
2019-04-19T02:36:52.130Z,80.50
2019-04-19T02:37:43.716Z,80.49
2019-04-19T02:38:46.880Z,80.38
2019-04-19T02:39:45.127Z,80.83
2019-04-19T02:41:49.733Z,81.35
2019-04-19T02:42:48.307Z,81.57
2019-04-19T02:43:54.168Z,81.82
2019-04-19T02:44:57.956Z,82.06
2019-04-19T02:46:02.227Z,82.70
2019-04-19T02:46:51.965Z,82.88
2019-04-19T02:47:44.408Z,83.21
2019-04-19T02:48:54.495Z,83.25
2019-04-19T02:51:08.632Z,83.68
2019-04-19T02:53:01.780Z,84.85
2019-04-19T02:53:47.043Z,84.90
2019-04-19T02:54:54.096Z,85.22
2019-04-19T02:55:56.344Z,85.80
2019-04-19T02:57:50.748Z,85.71
2019-04-19T02:58:53.051Z,85.68
2019-04-19T02:59:59.595Z,85.62
2019-04-19T03:01:58.691Z,85.87
2019-04-19T03:02:52.838Z,85.74
2019-04-19T03:03:50.272Z,85.58
2019-04-19T03:05:11.225Z,85.81
2019-04-19T03:05:59.336Z,85.50
2019-04-19T03:06:36.884Z,85.25
2019-04-19T03:07:26.115Z,84.71
2019-04-19T03:08:27.173Z,84.29
2019-04-19T03:09:32.923Z,83.87
2019-04-19T03:10:29.217Z,83.73
2019-04-19T03:11:45.780Z,83.80
2019-04-19T03:12:48.932Z,84.21
2019-04-19T03:13:41.164Z,84.27
2019-04-19T03:14:45.180Z,84.39
2019-04-19T03:15:59.693Z,84.55
2019-04-19T03:16:56.865Z,84.73
2019-04-19T03:17:44.529Z,84.43
2019-04-19T03:18:43.666Z,84.75
2019-04-19T03:19:44.216Z,84.67
2019-04-19T03:20:42.598Z,84.52
2019-04-19T03:21:42.959Z,84.34
2019-04-19T03:22:51.691Z,84.19
2019-04-19T03:23:45.120Z,84.42
2019-04-19T03:24:50.953Z,85.06
2019-04-19T03:25:45.245Z,84.95
2019-04-19T03:27:47.364Z,85.55
2019-04-19T03:28:40.513Z,85.94
2019-04-19T03:29:38.842Z,85.61
2019-04-19T03:31:01.544Z,85.65
2019-04-19T03:32:11.603Z,86.02
2019-04-19T03:33:04.296Z,85.99
2019-04-19T03:34:06.530Z,86.28
2019-04-19T03:35:54.010Z,86.92
2019-04-19T03:36:47.640Z,87.33
2019-04-19T03:37:56.563Z,87.62
2019-04-19T03:38:52.707Z,87.72
2019-04-19T03:40:07.210Z,88.25
2019-04-19T03:40:53.554Z,88.76
2019-04-19T03:43:10.677Z,88.83
2019-04-19T03:43:57.218Z,88.72
2019-04-19T03:45:00.376Z,88.09
2019-04-19T03:45:56.637Z,88.05
2019-04-19T03:46:59.308Z,87.61
2019-04-19T03:47:56.999Z,87.62
2019-04-19T03:48:51.884Z,87.48
2019-04-19T03:49:58.369Z,87.49
2019-04-19T03:51:00.571Z,87.76
2019-04-19T03:52:04.282Z,87.70
2019-04-19T03:52:55.758Z,87.52
2019-04-19T03:54:14.389Z,87.37
2019-04-19T03:55:00.049Z,87.13
2019-04-19T03:56:06.274Z,86.63
2019-04-19T03:56:55.107Z,86.40
2019-04-19T03:57:50.407Z,86.10
2019-04-19T03:58:41.729Z,86.25
2019-04-19T03:59:41.441Z,86.21
2019-04-19T04:00:41.141Z,86.05
2019-04-19T04:01:46.484Z,86.03
2019-04-19T04:02:45.918Z,85.76
2019-04-19T04:03:46.364Z,85.63
2019-04-19T04:04:48.168Z,85.45
2019-04-19T04:05:47.467Z,85.16
2019-04-19T04:06:45.603Z,84.80
2019-04-19T04:07:45.511Z,84.39
2019-04-19T04:08:48.530Z,84.14
2019-04-19T04:09:49.047Z,83.81
2019-04-19T04:10:46.058Z,83.50
2019-04-19T04:11:55.226Z,83.05
2019-04-19T04:12:54.665Z,82.66
2019-04-19T04:14:03.372Z,82.23
2019-04-19T04:15:00.322Z,81.78
2019-04-19T04:16:02.840Z,81.14
2019-04-19T04:16:49.000Z,80.58
2019-04-19T04:17:45.785Z,79.91
2019-04-19T04:18:47.127Z,79.55
2019-04-19T04:19:46.390Z,79.14
2019-04-19T04:20:50.943Z,78.36
2019-04-19T04:21:50.665Z,78.17
2019-04-19T04:22:48.243Z,77.88
2019-04-19T04:23:58.949Z,77.40
2019-04-19T04:24:59.579Z,77.12
2019-04-19T04:25:57.300Z,76.79
2019-04-19T04:26:59.062Z,76.34
2019-04-19T04:27:58.686Z,76.01
2019-04-19T04:28:59.488Z,75.83
2019-04-19T04:30:00.210Z,75.76
2019-04-19T04:31:00.803Z,75.53
2019-04-19T04:32:01.563Z,75.18
2019-04-19T04:33:00.495Z,74.88
2019-04-19T04:34:03.021Z,74.44
2019-04-19T04:35:08.795Z,74.39
2019-04-19T04:36:11.761Z,73.61
2019-04-19T04:37:06.382Z,73.53
2019-04-19T04:38:04.914Z,73.34
2019-04-19T04:38:53.048Z,73.11
2019-04-19T04:39:53.459Z,72.82
2019-04-19T04:40:52.853Z,72.44
2019-04-19T04:42:05.674Z,71.92
2019-04-19T04:44:13.549Z,71.43
2019-04-19T04:45:18.763Z,70.93
2019-04-19T04:46:33.775Z,70.25
2019-04-19T04:47:15.392Z,70.21
2019-04-19T04:48:10.229Z,70.11
2019-04-19T04:49:24.536Z,69.92
2019-04-19T04:51:15.839Z,69.12
2019-04-19T04:52:04.207Z,69.08
2019-04-19T04:53:55.396Z,68.95
2019-04-19T04:54:56.521Z,68.44
2019-04-19T04:56:02.080Z,67.88
2019-04-19T04:57:05.255Z,68.09
2019-04-19T04:58:00.505Z,67.44
2019-04-19T04:58:58.304Z,66.85
2019-04-19T04:59:58.896Z,66.66
2019-04-19T05:01:05.253Z,66.56
2019-04-19T05:02:06.709Z,66.28
2019-04-19T05:03:12.849Z,66.31
2019-04-19T05:04:11.799Z,66.12
2019-04-19T05:05:16.769Z,65.57
2019-04-19T05:06:17.794Z,65.11
2019-04-19T05:07:24.385Z,65.17
2019-04-19T05:08:19.694Z,64.97
2019-04-19T05:09:22.580Z,64.98
2019-04-19T05:10:14.801Z,64.79
2019-04-19T05:11:16.602Z,64.56
2019-04-19T05:12:18.724Z,64.38
2019-04-19T05:13:22.495Z,64.39
2019-04-19T05:15:24.754Z,64.27
2019-04-19T05:16:29.456Z,64.16
2019-04-19T05:17:33.248Z,64.03
2019-04-19T05:19:19.835Z,63.69
2019-04-19T05:20:21.149Z,63.78
2019-04-19T05:22:18.211Z,63.52
2019-04-19T05:23:19.705Z,63.21
2019-04-19T05:24:22.099Z,63.11
2019-04-19T05:25:31.333Z,62.96
2019-04-19T05:26:37.444Z,62.67
2019-04-19T05:27:27.968Z,62.67
2019-04-19T05:28:21.396Z,62.73
2019-04-19T05:29:18.507Z,62.66
2019-04-19T05:30:04.586Z,62.57
2019-04-19T05:31:09.078Z,62.40
2019-04-19T05:32:13.352Z,62.33
2019-04-19T05:34:32.483Z,61.97
2019-04-19T05:35:15.681Z,61.69
2019-04-19T05:36:26.095Z,61.55
2019-04-19T05:37:18.646Z,61.55
2019-04-19T05:38:22.248Z,61.15
2019-04-19T05:39:30.362Z,61.11
2019-04-19T05:40:24.290Z,60.92
2019-04-19T05:41:14.694Z,60.67
2019-04-19T05:42:21.385Z,60.59
2019-04-19T05:43:48.753Z,60.44
2019-04-19T05:45:40.521Z,60.24
2019-04-19T05:46:29.903Z,60.18
2019-04-19T05:47:23.886Z,59.93
2019-04-19T05:48:27.616Z,59.72
2019-04-19T05:49:25.229Z,59.53
2019-04-19T05:50:30.532Z,58.94
2019-04-19T05:51:33.999Z,58.89
2019-04-19T05:52:30.064Z,58.28
2019-04-19T05:53:19.575Z,58.34
2019-04-19T05:54:12.400Z,58.28
2019-04-19T05:55:10.318Z,57.94
2019-04-19T05:56:09.697Z,57.87
2019-04-19T05:57:31.019Z,57.73
2019-04-19T05:58:20.262Z,57.41
2019-04-19T05:59:17.378Z,57.22
2019-04-19T06:00:25.948Z,57.03
2019-04-19T06:01:30.420Z,56.87
2019-04-19T06:02:21.847Z,56.88
2019-04-19T06:03:21.164Z,56.55
2019-04-19T06:04:32.324Z,56.27
2019-04-19T06:05:36.666Z,56.28
2019-04-19T06:06:37.559Z,56.31
2019-04-19T06:07:31.766Z,56.29
2019-04-19T06:08:21.009Z,56.38
2019-04-19T06:09:13.797Z,56.40
2019-04-19T06:10:14.628Z,56.41
2019-04-19T06:11:16.124Z,56.50
2019-04-19T06:12:19.725Z,56.40
2019-04-19T06:13:17.103Z,56.31
2019-04-19T06:14:41.027Z,56.16
2019-04-19T06:15:45.127Z,56.39
2019-04-19T06:16:36.420Z,56.47
2019-04-19T06:17:30.840Z,56.43
2019-04-19T06:18:29.279Z,55.99
2019-04-19T06:19:35.364Z,56.35
2019-04-19T06:20:33.978Z,56.17
2019-04-19T06:21:32.686Z,56.01
2019-04-19T06:22:35.432Z,55.72
2019-04-19T06:23:40.021Z,55.69
2019-04-19T06:24:36.851Z,55.59
2019-04-19T06:25:47.719Z,55.68
2019-04-19T06:26:53.765Z,55.83
2019-04-19T06:27:52.898Z,54.96
2019-04-19T06:28:44.160Z,54.23
2019-04-19T06:29:45.049Z,54.41
2019-04-19T06:30:41.471Z,54.49
2019-04-19T06:31:39.611Z,53.98
2019-04-19T06:32:40.000Z,53.36
2019-04-19T06:33:38.783Z,53.01
2019-04-19T06:34:36.270Z,52.84
2019-04-19T06:35:32.593Z,52.51
2019-04-19T06:36:20.997Z,52.34
2019-04-19T06:37:24.730Z,52.09
2019-04-19T06:38:22.540Z,51.65
2019-04-19T06:39:22.611Z,51.72
2019-04-19T06:40:26.530Z,51.53
2019-04-19T06:41:25.459Z,51.37
2019-04-19T06:42:31.935Z,51.08
2019-04-19T06:43:36.274Z,51.19
2019-04-19T06:44:47.426Z,51.15
2019-04-19T06:45:42.084Z,50.94
2019-04-19T06:46:31.793Z,50.67
2019-04-19T06:47:32.020Z,50.65
2019-04-19T06:48:26.987Z,50.21
2019-04-19T06:49:27.701Z,50.03
2019-04-19T06:50:30.102Z,49.62
2019-04-19T06:51:32.788Z,49.61
2019-04-19T06:52:29.393Z,49.54
2019-04-19T06:53:31.043Z,49.32
2019-04-19T06:54:33.076Z,49.13
2019-04-19T06:55:31.725Z,49.09
2019-04-19T06:56:31.765Z,48.54
2019-04-19T06:57:32.333Z,48.90
2019-04-19T06:58:32.748Z,48.63
2019-04-19T06:59:41.962Z,48.44
2019-04-19T07:00:42.503Z,48.41
2019-04-19T07:01:36.519Z,48.21
2019-04-19T07:02:28.397Z,48.07
2019-04-19T07:03:27.895Z,48.10
2019-04-19T07:04:27.735Z,48.00
2019-04-19T07:05:40.334Z,47.68
2019-04-19T07:06:43.021Z,47.43
2019-04-19T07:07:50.760Z,47.30
2019-04-19T07:09:02.801Z,47.21
2019-04-19T07:09:52.425Z,46.96
2019-04-19T07:10:56.239Z,46.73
2019-04-19T07:11:51.719Z,46.72
2019-04-19T07:12:46.834Z,46.36
2019-04-19T07:13:40.532Z,46.12
2019-04-19T07:14:33.703Z,45.85
2019-04-19T07:15:55.308Z,45.61
2019-04-19T07:16:54.112Z,45.53
2019-04-19T07:17:47.367Z,45.55
2019-04-19T07:18:44.960Z,45.52
2019-04-19T07:19:52.852Z,45.10
2019-04-19T07:20:48.605Z,44.63
2019-04-19T07:21:46.940Z,44.73
2019-04-19T07:22:49.414Z,44.77
2019-04-19T07:24:58.394Z,44.58
2019-04-19T07:26:02.527Z,44.09
2019-04-19T07:26:56.631Z,44.28
2019-04-19T07:27:47.744Z,43.99
2019-04-19T07:28:37.227Z,43.75
2019-04-19T07:29:35.738Z,43.52
2019-04-19T07:30:35.036Z,43.24
2019-04-19T07:31:36.931Z,43.18
2019-04-19T07:32:43.854Z,42.97
2019-04-19T07:33:47.477Z,42.61
2019-04-19T07:34:52.998Z,42.43
2019-04-19T07:36:00.919Z,42.14
2019-04-19T07:36:59.460Z,41.84
2019-04-19T07:37:58.841Z,41.82
2019-04-19T07:38:57.542Z,41.82
2019-04-19T07:40:55.549Z,41.76
2019-04-19T07:42:02.042Z,41.54
2019-04-19T07:42:56.541Z,41.24
2019-04-19T07:43:51.344Z,41.03
2019-04-19T07:44:46.032Z,40.67
2019-04-19T07:46:03.934Z,40.71
2019-04-19T07:46:59.336Z,40.32
2019-04-19T07:47:48.920Z,40.11
2019-04-19T07:48:39.112Z,39.93
2019-04-19T07:49:49.514Z,39.74
2019-04-19T07:51:52.085Z,39.13
2019-04-19T07:53:46.292Z,38.48
2019-04-19T07:54:42.291Z,38.54
2019-04-19T07:55:54.965Z,38.25
2019-04-19T07:56:51.771Z,37.65
2019-04-19T07:58:16.442Z,37.25
2019-04-19T07:59:07.878Z,36.95
2019-04-19T08:00:15.167Z,36.75
2019-04-19T08:02:12.945Z,36.65
2019-04-19T08:03:11.256Z,36.63
2019-04-19T08:05:10.845Z,35.89
2019-04-19T08:06:09.989Z,35.33
2019-04-19T08:08:17.805Z,35.19
2019-04-19T08:09:13.650Z,34.71
2019-04-19T08:10:08.953Z,34.51
2019-04-19T08:11:16.945Z,34.35
2019-04-19T08:13:21.613Z,34.21
2019-04-19T08:15:15.344Z,34.45
2019-04-19T08:17:40.449Z,34.31
2019-04-19T08:28:02.580Z,33.24
2019-04-19T08:28:58.994Z,32.95
2019-04-19T08:29:58.009Z,32.91
2019-04-19T08:30:55.905Z,32.90
2019-04-19T08:31:52.790Z,32.77
2019-04-19T08:32:51.958Z,32.27
2019-04-19T08:33:53.067Z,31.85
2019-04-19T08:34:58.598Z,31.74
2019-04-19T08:35:56.166Z,31.81
2019-04-19T08:36:58.602Z,31.77
2019-04-19T08:38:02.468Z,31.46
2019-04-19T08:39:13.967Z,31.11
2019-04-19T08:40:16.036Z,31.07
2019-04-19T08:41:09.064Z,30.83
2019-04-19T08:42:16.198Z,30.91
2019-04-19T08:43:17.372Z,30.55
2019-04-19T08:44:16.788Z,30.54
2019-04-19T08:45:01.746Z,30.30
2019-04-19T08:45:56.244Z,30.23
2019-04-19T08:46:57.738Z,30.47
2019-04-19T08:48:06.544Z,30.38
2019-04-19T08:49:02.358Z,30.38
2019-04-19T08:50:02.667Z,30.13
2019-04-19T08:50:58.463Z,30.29
2019-04-19T08:51:59.936Z,30.14
2019-04-19T08:53:07.642Z,30.08
2019-04-19T08:54:23.075Z,29.85
2019-04-19T08:55:19.331Z,29.64
2019-04-19T08:56:11.620Z,29.55
2019-04-19T08:57:07.449Z,29.29
2019-04-19T08:58:07.157Z,29.23
2019-04-19T08:59:33.148Z,29.12
2019-04-19T09:00:25.982Z,29.18
2019-04-19T09:01:28.097Z,29.22
2019-04-19T09:02:22.076Z,29.24
2019-04-19T09:03:17.277Z,29.09
2019-04-19T09:04:20.743Z,29.06
2019-04-19T09:05:18.359Z,28.73
2019-04-19T09:08:24.030Z,28.59
2019-04-19T09:09:28.198Z,28.46
2019-04-19T09:10:48.336Z,28.71
2019-04-19T09:11:21.013Z,28.68
2019-04-19T09:12:21.176Z,28.22
2019-04-19T09:13:37.883Z,27.93
2019-04-19T09:14:24.588Z,28.15
2019-04-19T09:15:20.302Z,27.87
2019-04-19T09:16:20.590Z,27.27
2019-04-19T09:17:24.635Z,27.29
2019-04-19T09:19:35.856Z,26.86
2019-04-19T09:20:28.047Z,26.57
2019-04-19T09:21:23.000Z,26.67
2019-04-19T09:22:24.300Z,26.95
2019-04-19T09:23:20.246Z,27.05
2019-04-19T09:24:09.998Z,26.95
2019-04-19T09:25:19.076Z,27.11
2019-04-19T09:26:23.523Z,26.43
2019-04-19T09:27:33.982Z,26.70
2019-04-19T09:28:37.873Z,26.72
2019-04-19T09:29:29.010Z,26.49
2019-04-19T09:30:27.677Z,26.27
2019-04-19T09:31:31.886Z,26.33
2019-04-19T09:32:23.693Z,26.22
2019-04-19T09:33:18.314Z,26.38
2019-04-19T09:34:19.754Z,26.04
2019-04-19T09:35:12.837Z,26.22
2019-04-19T09:36:13.807Z,26.10
2019-04-19T09:37:20.022Z,26.19
2019-04-19T09:38:28.914Z,26.05
2019-04-19T09:39:25.410Z,25.95
2019-04-19T09:40:27.483Z,25.54
2019-04-19T09:41:23.692Z,25.85
2019-04-19T09:43:31.028Z,25.92
2019-04-19T09:44:25.819Z,26.30
2019-04-19T09:45:15.117Z,26.12
2019-04-19T09:46:21.183Z,26.27
2019-04-19T09:47:14.301Z,26.15
2019-04-19T09:48:36.331Z,26.01
2019-04-19T09:49:32.205Z,25.80
2019-04-19T09:50:36.594Z,25.50
2019-04-19T09:51:33.919Z,25.37
2019-04-19T09:52:54.106Z,25.23
2019-04-19T09:53:44.769Z,25.09
2019-04-19T09:54:38.862Z,25.19
2019-04-19T09:55:40.167Z,25.07
2019-04-19T09:56:29.137Z,25.28
2019-04-19T09:57:41.395Z,24.98
2019-04-19T09:58:36.856Z,24.92
2019-04-19T09:59:27.169Z,24.66
2019-04-19T10:00:22.453Z,24.80
2019-04-19T10:01:21.227Z,24.42
2019-04-19T10:02:25.329Z,24.55
2019-04-19T10:03:30.640Z,24.44
2019-04-19T10:04:17.011Z,24.56
2019-04-19T10:05:17.036Z,24.58
2019-04-19T10:06:23.046Z,24.35
2019-04-19T10:07:18.756Z,24.32
2019-04-19T10:08:17.700Z,24.38
2019-04-19T10:09:23.755Z,24.17
2019-04-19T10:10:20.788Z,24.34
2019-04-19T10:11:19.214Z,24.22
2019-04-19T10:12:21.784Z,24.04
2019-04-19T10:13:23.624Z,24.08
2019-04-19T10:27:19.201Z,24.06
2019-04-19T10:27:31.687Z,23.73
2019-04-19T10:28:32.246Z,22.94
2019-04-19T10:29:38.065Z,22.89
2019-04-19T10:30:32.865Z,23.12
2019-04-19T10:31:33.683Z,23.11
2019-04-19T10:32:34.881Z,22.97
2019-04-19T10:33:41.273Z,22.89
2019-04-19T10:34:34.572Z,22.92
2019-04-19T10:35:35.602Z,23.17
2019-04-19T10:36:36.404Z,22.85
2019-04-19T10:37:35.746Z,22.74
2019-04-19T10:38:35.868Z,22.41
2019-04-19T10:39:35.779Z,22.37
2019-04-19T10:40:36.097Z,22.13
2019-04-19T10:41:36.650Z,21.87
2019-04-19T10:42:39.016Z,22.02
2019-04-19T10:43:43.314Z,21.76
2019-04-19T10:44:38.199Z,21.93
2019-04-19T10:45:38.319Z,21.89
2019-04-19T10:46:38.621Z,21.87
2019-04-19T10:47:38.178Z,21.93
2019-04-19T10:48:38.935Z,22.11
2019-04-19T10:49:44.873Z,22.14
2019-04-19T10:50:44.310Z,22.17
2019-04-19T10:51:39.693Z,22.14
2019-04-19T10:52:39.602Z,22.01
2019-04-19T10:53:39.873Z,21.61
2019-04-19T10:54:41.187Z,21.30
2019-04-19T10:55:40.872Z,21.15
2019-04-19T10:56:41.038Z,20.78
2019-04-19T10:57:41.226Z,20.95
2019-04-19T10:58:42.755Z,20.94
2019-04-19T10:59:42.659Z,20.99
2019-04-19T11:00:42.995Z,20.82
2019-04-19T11:01:43.176Z,20.70
2019-04-19T11:02:42.486Z,20.66
2019-04-19T11:03:42.760Z,20.75
2019-04-19T11:04:42.988Z,20.49
2019-04-19T11:05:43.233Z,20.37
2019-04-19T11:06:43.350Z,20.01
2019-04-19T11:07:43.769Z,20.32
2019-04-19T11:08:44.597Z,20.28
2019-04-19T11:09:44.128Z,20.44
2019-04-19T11:10:45.449Z,20.39
2019-04-19T11:11:45.601Z,20.31
2019-04-19T11:12:45.006Z,20.49
2019-04-19T11:13:45.741Z,20.57
2019-04-19T11:14:46.170Z,20.87
2019-04-19T11:15:46.636Z,21.20
2019-04-19T11:16:45.509Z,21.16
2019-04-19T11:17:45.773Z,21.07
2019-04-19T11:18:46.239Z,20.76
2019-04-19T11:20:02.263Z,20.67
2019-04-19T11:20:50.448Z,20.66
2019-04-19T11:21:47.693Z,20.59
2019-04-19T11:22:48.118Z,20.73
2019-04-19T11:23:47.681Z,20.68
2019-04-19T11:24:48.051Z,20.72
2019-04-19T11:25:50.928Z,20.81
2019-04-19T11:26:48.729Z,20.90
2019-04-19T11:27:51.257Z,21.11
2019-04-19T11:28:49.353Z,21.18
2019-04-19T11:29:52.863Z,21.22
2019-04-19T11:30:50.814Z,21.26
2019-04-19T11:31:50.318Z,20.88
2019-04-19T11:32:51.031Z,20.77
2019-04-19T11:33:50.993Z,20.73
2019-04-19T11:34:51.429Z,20.54
2019-04-19T11:35:53.075Z,20.48
2019-04-19T11:36:51.970Z,20.41
2019-04-19T11:37:53.187Z,20.43
2019-04-19T11:38:52.308Z,20.46
2019-04-19T11:39:53.052Z,20.66
2019-04-19T11:40:53.297Z,20.41
2019-04-19T11:41:52.958Z,20.49
2019-04-19T11:42:53.189Z,20.28
2019-04-19T11:43:53.718Z,20.23
2019-04-19T11:44:54.084Z,20.05
2019-04-19T11:45:54.064Z,20.05
2019-04-19T11:46:54.331Z,19.75
2019-04-19T11:47:55.406Z,19.54
2019-04-19T11:48:55.459Z,19.34
2019-04-19T11:49:55.567Z,19.29
2019-04-19T11:50:55.988Z,18.89
2019-04-19T11:51:55.981Z,19.03
2019-04-19T11:52:56.221Z,19.09
2019-04-19T11:53:56.830Z,18.95
2019-04-19T11:54:57.101Z,18.99
2019-04-19T11:55:58.296Z,18.89
2019-04-19T11:57:02.429Z,18.74
2019-04-19T11:57:58.737Z,18.58
2019-04-19T11:58:58.335Z,18.45
2019-04-19T11:59:59.397Z,18.59
2019-04-19T12:01:00.135Z,18.56
2019-04-19T12:01:59.886Z,18.42
2019-04-19T12:03:00.183Z,18.49
2019-04-19T12:04:00.495Z,18.48
2019-04-19T12:05:12.018Z,18.12
2019-04-19T12:06:00.399Z,18.67
2019-04-19T12:07:02.718Z,18.49
2019-04-19T12:08:00.806Z,18.11
2019-04-19T12:09:02.601Z,18.22
2019-04-19T12:10:02.946Z,18.20
2019-04-19T12:11:02.226Z,18.59
2019-04-19T12:12:01.750Z,18.47
2019-04-19T12:13:03.434Z,18.86
2019-04-19T12:14:03.780Z,19.38
2019-04-19T12:15:02.489Z,19.86
2019-04-19T12:16:03.115Z,19.70
2019-04-19T12:17:02.892Z,19.80
2019-04-19T12:18:02.646Z,19.97
2019-04-19T12:19:04.345Z,20.27
2019-04-19T12:20:05.821Z,20.14
2019-04-19T12:21:05.023Z,20.09
2019-04-19T12:22:05.285Z,19.80
2019-04-19T12:23:04.236Z,19.74
2019-04-19T12:24:04.708Z,19.92
2019-04-19T12:25:05.746Z,19.59
2019-04-19T12:26:06.011Z,19.40
2019-04-19T12:27:05.475Z,19.40
2019-04-19T12:28:05.864Z,19.37
2019-04-19T12:29:07.381Z,19.43
2019-04-19T12:30:07.529Z,19.44
2019-04-19T12:31:07.390Z,19.21
2019-04-19T12:32:07.599Z,19.05
2019-04-19T12:33:07.404Z,18.92
2019-04-19T12:34:09.668Z,18.74
2019-04-19T12:35:08.868Z,19.09
2019-04-19T12:36:08.245Z,19.14
2019-04-19T12:37:09.128Z,19.36
2019-04-19T12:38:10.155Z,19.25
2019-04-19T12:39:09.498Z,19.06
2019-04-19T12:40:10.829Z,19.26
2019-04-19T12:41:10.170Z,19.05
2019-04-19T12:42:11.269Z,18.84
2019-04-19T12:43:11.893Z,18.56
2019-04-19T12:44:11.093Z,18.57
2019-04-19T12:45:13.234Z,18.42
2019-04-19T12:46:12.800Z,18.30
2019-04-19T12:47:12.961Z,18.44
2019-04-19T12:48:12.224Z,18.59
2019-04-19T12:49:12.614Z,18.47
2019-04-19T12:50:14.636Z,18.27
2019-04-19T12:51:14.149Z,18.51
2019-04-19T12:52:13.556Z,18.57
2019-04-19T12:53:13.303Z,18.38
2019-04-19T12:54:14.141Z,18.36
2019-04-19T12:55:15.350Z,18.32
2019-04-19T12:56:18.022Z,18.31
2019-04-19T12:57:16.047Z,17.97
2019-04-19T12:58:15.468Z,18.09
2019-04-19T12:59:18.120Z,18.16
2019-04-19T13:00:16.197Z,18.18
2019-04-19T13:01:15.199Z,18.40
2019-04-19T13:02:15.823Z,18.63
2019-04-19T13:03:16.230Z,18.58
2019-04-19T13:04:16.511Z,18.81
2019-04-19T13:05:18.237Z,19.04
2019-04-19T13:06:17.580Z,18.98
2019-04-19T13:07:17.444Z,19.05
2019-04-19T13:08:18.934Z,18.91
2019-04-19T13:09:19.123Z,18.69
2019-04-19T13:10:18.488Z,18.51
2019-04-19T13:11:18.871Z,18.37
2019-04-19T13:12:19.146Z,18.28
2019-04-19T13:13:19.510Z,18.12
2019-04-19T13:14:19.889Z,18.19
2019-04-19T13:15:20.169Z,17.88
2019-04-19T13:16:22.116Z,17.79
2019-04-19T13:17:20.692Z,18.09
2019-04-19T13:18:22.364Z,18.15
2019-04-19T13:19:22.535Z,18.02
2019-04-19T13:20:26.417Z,17.89
2019-04-19T13:21:22.021Z,17.74
2019-04-19T13:22:22.831Z,17.52
2019-04-19T13:23:22.136Z,17.57
2019-04-19T13:24:22.579Z,17.48
2019-04-19T13:25:23.530Z,17.83
2019-04-19T13:26:23.135Z,17.89
2019-04-19T13:27:35.368Z,17.98
2019-04-19T13:28:23.696Z,18.16
2019-04-19T13:29:25.260Z,18.08
2019-04-19T13:30:31.950Z,18.18
2019-04-19T13:31:24.994Z,18.01
2019-04-19T13:32:25.970Z,17.77
2019-04-19T13:33:26.069Z,17.70
2019-04-19T13:34:25.615Z,17.66
2019-04-19T13:35:25.896Z,17.55
2019-04-19T13:36:28.524Z,17.85
2019-04-19T13:37:27.295Z,17.66
2019-04-19T13:38:27.432Z,17.71
2019-04-19T13:39:27.853Z,17.42
2019-04-19T13:40:28.292Z,17.64
2019-04-19T13:41:29.203Z,17.48
2019-04-19T13:42:28.660Z,17.14
2019-04-19T13:43:29.001Z,17.42
2019-04-19T13:44:29.196Z,17.62
2019-04-19T13:45:31.756Z,17.95
2019-04-19T13:46:28.845Z,17.73
2019-04-19T13:47:29.257Z,17.87
2019-04-19T13:48:30.371Z,17.92
2019-04-19T13:49:30.610Z,17.56
2019-04-19T13:50:36.044Z,17.21